createdAt,value
2018-08-24T00:00:57.415Z,23.20
2018-08-24T00:04:01.330Z,23.10
2018-08-24T00:06:34.158Z,23.10
2018-08-24T00:09:08.986Z,23.00
2018-08-24T00:11:56.397Z,23.00
2018-08-24T00:14:29.476Z,22.90
2018-08-24T00:17:02.270Z,22.80
2018-08-24T00:19:35.139Z,22.70
2018-08-24T00:22:08.601Z,22.70
2018-08-24T00:24:41.584Z,22.60
2018-08-24T00:27:14.881Z,22.60
2018-08-24T00:29:47.794Z,22.50
2018-08-24T00:32:20.845Z,22.50
2018-08-24T00:34:53.744Z,22.50
2018-08-24T00:37:26.657Z,22.40
2018-08-24T00:39:59.723Z,22.30
2018-08-24T00:42:32.519Z,22.30
2018-08-24T00:45:05.535Z,22.20
2018-08-24T00:47:38.368Z,22.10
2018-08-24T00:50:11.388Z,22.20
2018-08-24T00:52:44.298Z,22.10
2018-08-24T00:55:17.287Z,22.00
2018-08-24T00:57:50.209Z,22.10
2018-08-24T01:00:27.635Z,22.10
2018-08-24T01:03:00.619Z,22.10
2018-08-24T01:05:33.391Z,22.10
2018-08-24T01:08:09.621Z,22.00
2018-08-24T01:10:42.468Z,21.90
2018-08-24T01:13:17.298Z,21.90
2018-08-24T01:15:55.779Z,21.80
2018-08-24T01:18:32.940Z,21.70
2018-08-24T01:21:05.828Z,21.70
2018-08-24T01:23:38.996Z,21.60
2018-08-24T01:26:12.195Z,21.60
2018-08-24T01:28:46.065Z,21.60
2018-08-24T01:31:19.173Z,21.60
2018-08-24T01:33:52.306Z,21.50
2018-08-24T01:36:25.499Z,21.40
2018-08-24T01:38:58.366Z,21.40
2018-08-24T01:41:31.596Z,21.40
2018-08-24T01:44:04.643Z,21.50
2018-08-24T01:46:37.747Z,21.50
2018-08-24T01:49:11.616Z,21.40
2018-08-24T01:51:45.934Z,21.50
2018-08-24T01:54:18.868Z,21.40
2018-08-24T01:56:51.786Z,21.40
2018-08-24T01:59:24.631Z,21.40
2018-08-24T02:01:57.498Z,21.30
2018-08-24T02:04:31.554Z,21.30
2018-08-24T02:07:04.314Z,21.20
2018-08-24T02:09:37.135Z,21.20
2018-08-24T02:12:14.123Z,21.20
2018-08-24T02:14:50.652Z,21.10
2018-08-24T02:17:27.932Z,21.10
2018-08-24T02:20:05.173Z,21.10
2018-08-24T02:22:38.146Z,21.00
2018-08-24T02:25:11.166Z,21.00
2018-08-24T02:27:43.993Z,21.00
2018-08-24T02:30:16.924Z,21.00
2018-08-24T02:32:49.929Z,21.00
2018-08-24T02:35:22.775Z,21.00
2018-08-24T02:37:55.578Z,21.10
2018-08-24T02:40:28.936Z,21.00
2018-08-24T02:43:02.196Z,21.00
2018-08-24T02:45:35.253Z,21.00
2018-08-24T02:48:08.231Z,21.00
2018-08-24T02:50:41.400Z,21.00
2018-08-24T02:53:14.294Z,21.10
2018-08-24T02:55:47.014Z,21.00
2018-08-24T02:58:19.835Z,21.00
2018-08-24T03:00:52.871Z,21.00
2018-08-24T03:03:25.887Z,21.00
2018-08-24T03:05:58.937Z,21.00
2018-08-24T03:08:31.730Z,21.00
2018-08-24T03:11:04.625Z,20.90
2018-08-24T03:13:37.427Z,20.80
2018-08-24T03:16:10.685Z,20.70
2018-08-24T03:18:43.622Z,20.60
2018-08-24T03:21:16.414Z,20.60
2018-08-24T03:23:49.837Z,20.50
2018-08-24T03:26:22.772Z,20.40
2018-08-24T03:28:55.718Z,20.40
2018-08-24T03:31:28.838Z,20.20
2018-08-24T03:34:01.634Z,20.10
2018-08-24T03:36:35.020Z,20.10
2018-08-24T03:39:09.421Z,20.00
2018-08-24T03:41:42.218Z,20.00
2018-08-24T03:44:16.637Z,20.10
2018-08-24T03:46:49.766Z,20.00
2018-08-24T03:49:22.748Z,19.90
2018-08-24T03:51:55.701Z,19.80
2018-08-24T03:54:28.559Z,19.70
2018-08-24T03:57:01.836Z,19.60
2018-08-24T03:59:34.777Z,19.50
2018-08-24T04:02:10.893Z,19.50
2018-08-24T04:04:44.099Z,19.40
2018-08-24T04:07:17.969Z,19.50
2018-08-24T04:09:50.788Z,19.50
2018-08-24T04:12:23.550Z,19.50
2018-08-24T04:14:56.380Z,19.50
2018-08-24T04:17:33.610Z,19.40
2018-08-24T04:20:06.457Z,19.40
2018-08-24T04:22:39.155Z,19.50
2018-08-24T04:25:12.678Z,19.50
2018-08-24T04:27:45.484Z,19.40
2018-08-24T04:30:18.163Z,19.40
2018-08-24T04:32:50.846Z,19.30
2018-08-24T04:35:23.513Z,19.30
2018-08-24T04:37:56.466Z,19.30
2018-08-24T04:40:29.349Z,19.20
2018-08-24T04:43:02.306Z,19.20
2018-08-24T04:45:35.291Z,19.20
2018-08-24T04:48:08.420Z,19.20
2018-08-24T04:50:41.221Z,19.20
2018-08-24T04:53:14.020Z,19.20
2018-08-24T04:55:46.884Z,19.20
2018-08-24T04:58:19.998Z,19.30
2018-08-24T05:00:52.852Z,19.30
2018-08-24T05:03:25.685Z,19.30
2018-08-24T05:05:58.600Z,19.30
2018-08-24T05:08:31.339Z,19.30
2018-08-24T05:11:04.321Z,19.30
2018-08-24T05:13:37.143Z,19.30
2018-08-24T05:16:10.143Z,19.30
2018-08-24T05:18:42.968Z,19.30
2018-08-24T05:21:15.865Z,19.30
2018-08-24T05:23:48.919Z,19.30
2018-08-24T05:26:21.885Z,19.40
2018-08-24T05:28:55.153Z,19.30
2018-08-24T05:31:27.852Z,19.30
2018-08-24T05:34:00.819Z,19.40
2018-08-24T05:36:33.717Z,19.30
2018-08-24T05:39:07.187Z,19.20
2018-08-24T05:41:39.968Z,19.20
2018-08-24T05:44:12.817Z,19.20
2018-08-24T05:46:45.552Z,19.10
2018-08-24T05:49:18.391Z,19.10
2018-08-24T05:51:51.242Z,19.10
2018-08-24T05:54:24.157Z,19.00
2018-08-24T05:56:57.447Z,19.00
2018-08-24T05:59:30.423Z,18.90
2018-08-24T06:02:05.750Z,18.90
2018-08-24T06:04:38.816Z,19.00
2018-08-24T06:07:11.608Z,19.10
2018-08-24T06:09:44.425Z,19.00
2018-08-24T06:12:17.292Z,19.00
2018-08-24T06:14:50.280Z,19.00
2018-08-24T06:18:52.305Z,19.00
2018-08-24T06:21:25.342Z,19.00
2018-08-24T06:23:59.124Z,19.00
2018-08-24T06:26:32.319Z,18.90
2018-08-24T06:29:05.547Z,19.00
2018-08-24T06:31:38.447Z,19.00
2018-08-24T06:34:11.216Z,19.00
2018-08-24T06:36:44.021Z,19.00
2018-08-24T06:39:16.811Z,19.00
2018-08-24T06:41:49.789Z,19.00
2018-08-24T06:44:22.671Z,19.00
2018-08-24T06:46:55.537Z,19.00
2018-08-24T06:49:28.335Z,19.00
2018-08-24T06:52:01.209Z,19.00
2018-08-24T06:54:33.983Z,19.00
2018-08-24T06:57:06.907Z,19.00
2018-08-24T06:59:39.728Z,19.00
2018-08-24T07:02:12.728Z,19.10
2018-08-24T07:04:45.734Z,19.10
2018-08-24T07:07:18.841Z,19.10
2018-08-24T07:09:51.706Z,19.10
2018-08-24T07:12:24.763Z,19.10
2018-08-24T07:14:57.456Z,19.10
2018-08-24T07:17:34.703Z,19.10
2018-08-24T07:20:07.650Z,19.10
2018-08-24T07:22:40.773Z,19.00
2018-08-24T07:25:13.678Z,19.00
2018-08-24T07:27:46.548Z,19.10
2018-08-24T07:30:19.513Z,19.10
2018-08-24T07:32:52.420Z,19.10
2018-08-24T07:35:25.231Z,19.10
2018-08-24T07:37:58.347Z,19.10
2018-08-24T07:40:31.222Z,19.10
2018-08-24T07:43:04.096Z,19.00
2018-08-24T07:45:37.024Z,19.00
2018-08-24T07:48:09.842Z,18.90
2018-08-24T07:50:42.763Z,18.90
2018-08-24T07:53:15.629Z,18.90
2018-08-24T07:55:48.266Z,18.90
2018-08-24T07:58:21.338Z,18.90
2018-08-24T08:00:54.165Z,18.80
2018-08-24T08:03:27.180Z,18.80
2018-08-24T08:06:00.517Z,18.90
2018-08-24T08:08:33.378Z,18.90
2018-08-24T08:11:06.513Z,18.90
2018-08-24T08:13:41.964Z,18.90
2018-08-24T08:16:15.202Z,19.00
2018-08-24T08:18:48.036Z,19.00
2018-08-24T08:21:21.035Z,19.00
2018-08-24T08:23:53.827Z,18.90
2018-08-24T08:26:26.776Z,19.00
2018-08-24T08:28:59.581Z,19.00
2018-08-24T08:31:32.601Z,18.90
2018-08-24T08:34:05.441Z,18.80
2018-08-24T08:36:38.435Z,18.70
2018-08-24T08:39:13.698Z,18.70
2018-08-24T08:41:46.553Z,18.60
2018-08-24T08:44:19.375Z,18.60
2018-08-24T08:46:52.263Z,18.50
2018-08-24T08:49:25.427Z,18.50
2018-08-24T08:51:58.036Z,18.40
2018-08-24T08:54:30.858Z,18.50
2018-08-24T08:57:03.814Z,18.50
2018-08-24T08:59:37.526Z,18.50
2018-08-24T09:02:12.716Z,18.50
2018-08-24T09:04:45.564Z,18.50
2018-08-24T09:07:24.965Z,18.40
2018-08-24T09:10:00.681Z,18.40
2018-08-24T09:12:33.360Z,18.30
2018-08-24T09:15:06.328Z,18.30
2018-08-24T09:17:43.576Z,18.30
2018-08-24T09:20:20.692Z,18.30
2018-08-24T09:22:58.041Z,18.40
2018-08-24T09:25:35.315Z,18.40
2018-08-24T09:28:40.375Z,18.30
2018-08-24T09:31:17.952Z,18.30
2018-08-24T09:33:50.736Z,18.40
2018-08-24T09:36:24.839Z,18.30
2018-08-24T09:38:57.759Z,18.30
2018-08-24T09:41:30.505Z,18.40
2018-08-24T09:44:03.218Z,18.40
2018-08-24T09:46:40.354Z,18.40
2018-08-24T09:49:17.577Z,18.50
2018-08-24T09:51:50.591Z,18.50
2018-08-24T09:54:23.461Z,18.60
2018-08-24T09:56:56.252Z,18.60
2018-08-24T09:59:29.269Z,18.60
2018-08-24T10:02:06.252Z,18.70
2018-08-24T10:04:43.348Z,18.70
2018-08-24T10:07:20.568Z,18.60
2018-08-24T10:09:53.381Z,18.70
2018-08-24T10:12:26.077Z,18.80
2018-08-24T10:14:58.661Z,18.70
2018-08-24T10:17:31.578Z,18.70
2018-08-24T10:20:06.703Z,18.70
2018-08-24T10:22:39.585Z,18.70
2018-08-24T10:25:21.859Z,18.70
2018-08-24T10:28:03.663Z,18.70
2018-08-24T10:30:40.449Z,18.70
2018-08-24T10:33:13.231Z,18.70
2018-08-24T10:35:45.912Z,18.60
2018-08-24T10:38:19.067Z,18.60
2018-08-24T10:40:51.770Z,18.60
2018-08-24T10:43:24.623Z,18.50
2018-08-24T10:45:57.318Z,18.60
2018-08-24T10:48:30.022Z,18.60
2018-08-24T10:51:02.746Z,18.60
2018-08-24T10:53:35.392Z,18.60
2018-08-24T10:56:08.485Z,18.60
2018-08-24T10:58:41.386Z,18.60
2018-08-24T11:01:13.976Z,18.70
2018-08-24T11:03:46.800Z,18.70
2018-08-24T11:06:19.666Z,18.70
2018-08-24T11:08:52.181Z,18.70
2018-08-24T11:11:25.166Z,18.70
2018-08-24T11:13:58.049Z,18.80
2018-08-24T11:16:30.873Z,18.70
2018-08-24T11:19:03.786Z,18.70
2018-08-24T11:21:36.629Z,18.70
2018-08-24T11:24:09.345Z,18.60
2018-08-24T11:26:42.424Z,18.60
2018-08-24T11:29:16.010Z,18.60
2018-08-24T11:31:48.854Z,18.60
2018-08-24T11:34:21.798Z,18.60
2018-08-24T11:36:54.471Z,18.60
2018-08-24T11:39:27.157Z,18.50
2018-08-24T11:41:59.834Z,18.50
2018-08-24T11:44:32.756Z,18.50
2018-08-24T11:47:05.479Z,18.50
2018-08-24T11:49:38.296Z,18.50
2018-08-24T11:52:11.005Z,18.50
2018-08-24T11:54:43.860Z,18.60
2018-08-24T11:57:16.567Z,18.60
2018-08-24T11:59:49.463Z,18.70
2018-08-24T12:02:22.227Z,18.60
2018-08-24T12:04:54.972Z,18.60
2018-08-24T12:07:27.570Z,18.60
2018-08-24T12:10:00.443Z,18.50
2018-08-24T12:12:33.529Z,18.50
2018-08-24T12:15:06.412Z,18.50
2018-08-24T12:17:39.933Z,18.50
2018-08-24T12:20:12.896Z,18.50
2018-08-24T12:22:45.615Z,18.50
2018-08-24T12:25:18.538Z,18.60
2018-08-24T12:28:00.969Z,18.70
2018-08-24T12:30:45.268Z,18.80
2018-08-24T12:33:32.790Z,18.80
2018-08-24T12:36:12.822Z,18.90
2018-08-24T12:39:01.719Z,18.90
2018-08-24T12:41:45.739Z,18.90
2018-08-24T12:44:29.532Z,18.90
2018-08-24T12:50:57.393Z,18.90
2018-08-24T12:53:44.497Z,18.90
2018-08-24T12:56:27.721Z,18.90
2018-08-24T12:59:03.087Z,18.90
2018-08-24T13:01:36.254Z,18.90
2018-08-24T13:05:21.909Z,18.90
2018-08-24T13:07:55.494Z,18.90
2018-08-24T13:10:28.521Z,18.90
2018-08-24T13:13:01.398Z,18.90
2018-08-24T13:15:34.339Z,19.00
2018-08-24T13:18:07.553Z,19.00
2018-08-24T13:20:40.810Z,19.00
2018-08-24T13:23:14.273Z,19.10
2018-08-24T13:25:49.516Z,19.20
2018-08-24T13:28:23.474Z,19.30
2018-08-24T13:30:59.808Z,19.40
2018-08-24T13:33:37.833Z,19.40
2018-08-24T13:36:13.391Z,19.60
2018-08-24T13:38:53.576Z,19.60
2018-08-24T13:41:29.026Z,19.70
2018-08-24T13:44:02.336Z,19.80
2018-08-24T13:46:38.112Z,19.90
2018-08-24T13:49:14.351Z,20.00
2018-08-24T13:51:51.291Z,20.10
2018-08-24T13:54:27.392Z,20.30
2018-08-24T13:57:04.259Z,20.40
2018-08-24T13:59:40.165Z,20.50
2018-08-24T14:02:18.056Z,20.50
2018-08-24T14:04:51.908Z,20.60
2018-08-24T14:07:27.494Z,20.70
2018-08-24T14:10:00.738Z,20.70
2018-08-24T14:12:35.692Z,20.70
2018-08-24T14:15:08.573Z,20.90
2018-08-24T14:17:50.549Z,20.80
2018-08-24T14:20:25.204Z,20.80
2018-08-24T14:23:05.860Z,20.80
2018-08-24T14:25:38.968Z,20.80
2018-08-24T14:28:23.094Z,20.80
2018-08-24T14:31:01.508Z,21.00
2018-08-24T14:33:35.973Z,21.10
2018-08-24T14:36:11.134Z,21.30
2018-08-24T14:38:45.339Z,21.30
2018-08-24T14:41:18.234Z,21.40
2018-08-24T14:43:52.287Z,21.50
2018-08-24T14:46:35.377Z,21.50
2018-08-24T14:49:09.363Z,21.50
2018-08-24T14:51:42.915Z,21.40
2018-08-24T14:54:16.065Z,21.30
2018-08-24T14:56:50.514Z,21.20
2018-08-24T14:59:24.160Z,21.20
2018-08-24T15:01:57.833Z,21.20
2018-08-24T15:04:31.304Z,21.20
2018-08-24T15:07:06.946Z,21.20
2018-08-24T15:09:40.899Z,21.40
2018-08-24T15:12:16.523Z,21.50
2018-08-24T15:14:51.123Z,21.70
2018-08-24T15:17:25.989Z,22.00
2018-08-24T15:20:00.135Z,22.00
2018-08-24T15:22:34.121Z,22.20
2018-08-24T15:27:18.185Z,22.30
2018-08-24T15:29:55.096Z,22.40
2018-08-24T15:32:30.541Z,22.50
2018-08-24T15:35:03.912Z,22.60
2018-08-24T15:37:38.104Z,22.50
2018-08-24T15:40:14.601Z,22.60
2018-08-24T15:42:52.320Z,22.60
2018-08-24T15:45:26.740Z,22.50
2018-08-24T15:47:59.896Z,22.60
2018-08-24T15:50:34.027Z,22.60
2018-08-24T15:53:10.162Z,22.60
2018-08-24T15:55:44.194Z,22.70
2018-08-24T15:58:19.396Z,22.80
2018-08-24T16:00:52.779Z,22.70
2018-08-24T16:03:29.665Z,22.80
2018-08-24T16:06:03.383Z,22.90
2018-08-24T16:08:38.182Z,22.80
2018-08-24T16:11:13.784Z,23.00
2018-08-24T16:13:47.147Z,23.10
2018-08-24T16:16:20.225Z,23.30
2018-08-24T16:18:53.134Z,23.30
2018-08-24T16:21:25.880Z,23.40
2018-08-24T16:23:58.743Z,23.30
2018-08-24T16:26:31.690Z,23.30
2018-08-24T16:29:04.813Z,23.50
2018-08-24T16:31:39.535Z,23.50
2018-08-24T16:34:16.077Z,23.60
2018-08-24T16:36:49.725Z,23.60
2018-08-24T16:39:25.996Z,23.60
2018-08-24T16:41:59.014Z,23.60
2018-08-24T16:44:33.163Z,23.80
2018-08-24T16:47:05.876Z,23.80
2018-08-24T16:49:39.028Z,24.00
2018-08-24T16:52:13.880Z,23.80
2018-08-24T16:54:46.938Z,23.80
2018-08-24T16:57:20.383Z,23.70
2018-08-24T16:59:56.717Z,23.70
2018-08-24T17:02:30.270Z,23.60
2018-08-24T17:05:04.802Z,23.70
2018-08-24T17:07:37.877Z,23.80
2018-08-24T17:10:14.961Z,23.90
2018-08-24T17:13:01.806Z,24.00
2018-08-24T17:15:35.485Z,24.00
2018-08-24T17:18:14.140Z,23.60
2018-08-24T17:20:47.157Z,23.60
2018-08-24T17:23:19.981Z,23.80
2018-08-24T17:25:53.058Z,23.90
2018-08-24T17:28:25.727Z,23.80
2018-08-24T17:30:59.494Z,24.00
2018-08-24T17:33:32.598Z,24.30
2018-08-24T17:36:05.395Z,24.70
2018-08-24T17:38:39.590Z,24.30
2018-08-24T17:41:12.361Z,24.20
2018-08-24T17:43:45.489Z,24.30
2018-08-24T17:46:18.371Z,24.50
2018-08-24T17:48:54.120Z,24.70
2018-08-24T17:51:27.319Z,24.90
2018-08-24T17:54:00.197Z,25.10
2018-08-24T17:56:33.196Z,25.20
2018-08-24T17:59:06.384Z,25.30
2018-08-24T18:01:54.358Z,25.50
2018-08-24T18:04:28.386Z,25.60
2018-08-24T18:09:56.088Z,25.70
2018-08-24T18:12:30.171Z,25.60
2018-08-24T18:15:04.791Z,25.80
2018-08-24T18:17:40.036Z,26.20
2018-08-24T18:20:15.100Z,26.70
2018-08-24T18:22:51.113Z,26.80
2018-08-24T18:25:34.954Z,26.70
2018-08-24T18:28:08.090Z,26.80
2018-08-24T18:30:40.816Z,27.10
2018-08-24T18:33:13.835Z,27.10
2018-08-24T18:35:46.614Z,26.70
2018-08-24T18:38:24.980Z,26.60
2018-08-24T18:40:58.301Z,26.50
2018-08-24T18:43:31.204Z,26.30
2018-08-24T18:46:05.406Z,26.50
2018-08-24T18:48:38.484Z,26.70
2018-08-24T18:51:11.916Z,26.90
2018-08-24T18:53:44.697Z,27.00
2018-08-24T18:56:17.849Z,26.80
2018-08-24T18:58:50.854Z,26.60
2018-08-24T19:01:23.793Z,26.80
2018-08-24T19:03:56.837Z,27.20
2018-08-24T19:06:30.925Z,27.10
2018-08-24T19:09:05.435Z,27.00
2018-08-24T19:11:43.352Z,27.00
2018-08-24T19:14:18.144Z,27.10
2018-08-24T19:16:52.166Z,27.20
2018-08-24T19:19:30.340Z,27.20
2018-08-24T19:22:30.579Z,27.40
2018-08-24T19:25:12.077Z,27.10
2018-08-24T19:27:49.178Z,27.30
2018-08-24T19:30:26.632Z,27.70
2018-08-24T19:32:59.757Z,28.00
2018-08-24T19:35:34.383Z,28.10
2018-08-24T19:38:08.607Z,28.20
2018-08-24T19:40:45.831Z,28.60
2018-08-24T19:43:18.749Z,28.60
2018-08-24T19:45:52.451Z,28.30
2018-08-24T19:48:30.182Z,28.20
2018-08-24T19:51:03.063Z,28.40
2018-08-24T19:53:39.930Z,28.40
2018-08-24T19:56:12.912Z,28.50
2018-08-24T19:58:50.504Z,28.40
2018-08-24T20:01:24.900Z,28.40
2018-08-24T20:06:41.934Z,28.40
2018-08-24T20:09:21.294Z,28.00
2018-08-24T20:11:54.959Z,27.80
2018-08-24T20:14:36.640Z,28.10
2018-08-24T20:17:15.457Z,27.90
2018-08-24T20:19:48.547Z,27.90
2018-08-24T20:22:22.689Z,27.80
2018-08-24T20:24:58.529Z,27.90
2018-08-24T20:27:31.872Z,27.80
2018-08-24T20:30:04.744Z,27.60
2018-08-24T20:32:38.676Z,27.60
2018-08-24T20:35:12.194Z,27.60
2018-08-24T20:37:45.933Z,27.60
2018-08-24T20:40:20.808Z,27.60
2018-08-24T20:42:54.808Z,27.40
2018-08-24T20:45:28.729Z,27.40
2018-08-24T20:48:02.406Z,27.80
2018-08-24T20:50:35.392Z,28.00
2018-08-24T20:53:09.252Z,28.20
2018-08-24T20:55:45.705Z,28.40
2018-08-24T20:58:21.944Z,28.50
2018-08-24T21:00:56.660Z,28.40
2018-08-24T21:03:34.965Z,28.50
2018-08-24T21:06:08.709Z,28.00
2018-08-24T21:08:41.475Z,27.90
2018-08-24T21:11:14.584Z,27.90
2018-08-24T21:13:47.430Z,28.00
2018-08-24T21:16:20.330Z,27.90
2018-08-24T21:18:53.260Z,27.90
2018-08-24T21:21:26.240Z,28.30
2018-08-24T21:23:59.224Z,28.40
2018-08-24T21:26:33.049Z,28.20
2018-08-24T21:29:06.109Z,28.10
2018-08-24T21:31:40.134Z,27.90
2018-08-24T21:34:13.214Z,27.80
2018-08-24T21:36:46.106Z,27.70
2018-08-24T21:39:19.381Z,27.20
2018-08-24T21:41:52.366Z,26.90
2018-08-24T21:44:26.159Z,26.90
2018-08-24T21:47:00.671Z,26.90
2018-08-24T21:49:33.567Z,27.00
2018-08-24T21:52:06.423Z,27.00
2018-08-24T21:54:39.387Z,26.80
2018-08-24T21:57:12.307Z,26.80
2018-08-24T21:59:45.308Z,26.70
2018-08-24T22:02:18.240Z,26.90
2018-08-24T22:04:52.326Z,26.90
2018-08-24T22:07:26.144Z,26.90
2018-08-24T22:09:59.341Z,27.00
2018-08-24T22:12:33.208Z,26.90
2018-08-24T22:15:06.173Z,26.60
2018-08-24T22:17:40.477Z,26.50
2018-08-24T22:20:14.366Z,26.30
2018-08-24T22:22:47.286Z,26.20
2018-08-24T22:25:22.846Z,26.00
2018-08-24T22:27:55.900Z,26.00
2018-08-24T22:30:29.522Z,26.10
2018-08-24T22:33:02.378Z,26.00
2018-08-24T22:35:35.782Z,26.00
2018-08-24T22:38:09.364Z,26.00
2018-08-24T22:40:42.184Z,25.90
2018-08-24T22:43:19.260Z,25.90
2018-08-24T22:45:53.208Z,25.90
2018-08-24T22:48:26.202Z,25.70
2018-08-24T22:50:59.620Z,25.60
2018-08-24T22:53:32.614Z,25.60
2018-08-24T22:56:05.815Z,25.50
2018-08-24T22:58:38.811Z,25.60
2018-08-24T23:01:11.945Z,25.50
2018-08-24T23:03:44.897Z,25.50
2018-08-24T23:06:17.811Z,25.40
2018-08-24T23:08:51.488Z,25.30
2018-08-24T23:11:24.214Z,25.30
2018-08-24T23:14:01.110Z,25.20
2018-08-24T23:16:38.016Z,25.20
2018-08-24T23:19:14.921Z,25.00
2018-08-24T23:21:52.083Z,25.00
2018-08-24T23:24:28.632Z,25.00
2018-08-24T23:27:01.704Z,24.90
2018-08-24T23:29:34.658Z,24.80
2018-08-24T23:32:07.763Z,24.80
2018-08-24T23:34:41.026Z,24.90
2018-08-24T23:37:14.043Z,24.90
2018-08-24T23:39:47.893Z,24.90
2018-08-24T23:42:21.935Z,24.80
2018-08-24T23:44:55.316Z,24.70
2018-08-24T23:47:28.226Z,24.60
2018-08-24T23:50:01.190Z,24.60
2018-08-24T23:52:34.121Z,24.50
2018-08-24T23:55:14.893Z,24.50
2018-08-24T23:57:49.599Z,24.50
